sensor_id;sensor_type;location;lat;lon;timestamp;pressure;altitude;pressure_sealevel;temperature;humidity
4410;BME280;2218;51.408;7.208;2024-02-26T00:01:19;98076.56;;;17.32;37.87
4410;BME280;2218;51.408;7.208;2024-02-26T00:03:46;98084.31;;;17.34;37.60
4410;BME280;2218;51.408;7.208;2024-02-26T00:06:13;98070.50;;;17.31;37.69
4410;BME280;2218;51.408;7.208;2024-02-26T00:08:40;98074.78;;;17.33;37.84
4410;BME280;2218;51.408;7.208;2024-02-26T00:11:07;98072.16;;;17.33;37.64
4410;BME280;2218;51.408;7.208;2024-02-26T00:13:35;98073.13;;;17.31;37.80
4410;BME280;2218;51.408;7.208;2024-02-26T00:16:04;98078.38;;;17.31;37.83
4410;BME280;2218;51.408;7.208;2024-02-26T00:18:33;98074.91;;;17.31;37.74
4410;BME280;2218;51.408;7.208;2024-02-26T00:21:00;98072.41;;;17.29;38.09
4410;BME280;2218;51.408;7.208;2024-02-26T00:23:27;98070.59;;;17.30;37.73
4410;BME280;2218;51.408;7.208;2024-02-26T00:25:54;98071.56;;;17.29;38.00
4410;BME280;2218;51.408;7.208;2024-02-26T00:28:21;98077.66;;;17.29;38.16
4410;BME280;2218;51.408;7.208;2024-02-26T00:30:51;98080.28;;;17.29;37.79
4410;BME280;2218;51.408;7.208;2024-02-26T00:33:22;98074.19;;;17.29;38.13
4410;BME280;2218;51.408;7.208;2024-02-26T00:35:49;98069.09;;;17.27;37.81
4410;BME280;2218;51.408;7.208;2024-02-26T00:38:16;98068.13;;;17.28;37.91
4410;BME280;2218;51.408;7.208;2024-02-26T00:40:43;98066.47;;;17.27;37.97
4410;BME280;2218;51.408;7.208;2024-02-26T00:43:10;98072.69;;;17.26;37.73
4410;BME280;2218;51.408;7.208;2024-02-26T00:45:37;98071.00;;;17.25;37.61
4410;BME280;2218;51.408;7.208;2024-02-26T00:48:05;98077.13;;;17.26;37.76
4410;BME280;2218;51.408;7.208;2024-02-26T00:50:34;98087.63;;;17.26;37.82
4410;BME280;2218;51.408;7.208;2024-02-26T00:53:01;98085.00;;;17.26;38.08
4410;BME280;2218;51.408;7.208;2024-02-26T00:55:29;98072.81;;;17.25;37.83
4410;BME280;2218;51.408;7.208;2024-02-26T00:57:56;98060.50;;;17.25;37.81
4410;BME280;2218;51.408;7.208;2024-02-26T01:00:23;98062.31;;;17.25;37.84
4410;BME280;2218;51.408;7.208;2024-02-26T01:02:49;98063.28;;;17.24;37.67
4410;BME280;2218;51.408;7.208;2024-02-26T01:05:16;98070.31;;;17.23;37.87
4410;BME280;2218;51.408;7.208;2024-02-26T01:07:46;98064.09;;;17.24;37.49
4410;BME280;2218;51.408;7.208;2024-02-26T01:10:12;98059.00;;;17.23;37.84
4410;BME280;2218;51.408;7.208;2024-02-26T01:12:39;98062.44;;;17.23;37.68
4410;BME280;2218;51.408;7.208;2024-02-26T01:15:07;98063.56;;;17.21;37.83
4410;BME280;2218;51.408;7.208;2024-02-26T01:17:35;98059.97;;;17.22;37.70
4410;BME280;2218;51.408;7.208;2024-02-26T01:20:02;98060.94;;;17.21;37.73
4410;BME280;2218;51.408;7.208;2024-02-26T01:22:29;98063.56;;;17.21;37.87
4410;BME280;2218;51.408;7.208;2024-02-26T01:24:57;98065.31;;;17.20;37.77
4410;BME280;2218;51.408;7.208;2024-02-26T01:27:24;98068.91;;;17.19;37.71
4410;BME280;2218;51.408;7.208;2024-02-26T01:29:53;98075.81;;;17.20;37.85
4410;BME280;2218;51.408;7.208;2024-02-26T01:32:19;98079.41;;;17.19;37.65
4410;BME280;2218;51.408;7.208;2024-02-26T01:34:46;98076.78;;;17.19;37.88
4410;BME280;2218;51.408;7.208;2024-02-26T01:37:13;98075.97;;;17.19;37.63
4410;BME280;2218;51.408;7.208;2024-02-26T01:39:40;98076.09;;;17.17;37.70
4410;BME280;2218;51.408;7.208;2024-02-26T01:42:09;98070.03;;;17.17;37.79
4410;BME280;2218;51.408;7.208;2024-02-26T01:44:37;98076.09;;;17.17;37.90
4410;BME280;2218;51.408;7.208;2024-02-26T01:47:05;98077.06;;;17.16;37.97
4410;BME280;2218;51.408;7.208;2024-02-26T01:49:34;98063.97;;;17.16;37.53
4410;BME280;2218;51.408;7.208;2024-02-26T01:52:04;98070.03;;;17.17;37.61
4410;BME280;2218;51.408;7.208;2024-02-26T01:54:36;98066.59;;;17.16;37.77
4410;BME280;2218;51.408;7.208;2024-02-26T01:57:06;98062.28;;;17.15;38.07
4410;BME280;2218;51.408;7.208;2024-02-26T01:59:35;98064.91;;;17.15;37.85
4410;BME280;2218;51.408;7.208;2024-02-26T02:02:06;98069.31;;;17.15;37.64
4410;BME280;2218;51.408;7.208;2024-02-26T02:04:35;98071.13;;;17.14;37.88
4410;BME280;2218;51.408;7.208;2024-02-26T02:07:03;98074.56;;;17.15;37.75
4410;BME280;2218;51.408;7.208;2024-02-26T02:09:30;98076.34;;;17.14;37.80
4410;BME280;2218;51.408;7.208;2024-02-26T02:11:58;98073.06;;;17.12;38.04
4410;BME280;2218;51.408;7.208;2024-02-26T02:14:25;98072.22;;;17.12;38.18
4410;BME280;2218;51.408;7.208;2024-02-26T02:16:53;98074.03;;;17.11;37.72
4410;BME280;2218;51.408;7.208;2024-02-26T02:19:20;98078.31;;;17.12;37.73
4410;BME280;2218;51.408;7.208;2024-02-26T02:21:50;98074.03;;;17.11;37.80
4410;BME280;2218;51.408;7.208;2024-02-26T02:24:18;98074.84;;;17.12;37.70
4410;BME280;2218;51.408;7.208;2024-02-26T02:26:45;98072.34;;;17.10;37.99
4410;BME280;2218;51.408;7.208;2024-02-26T02:29:12;98081.06;;;17.11;37.84
4410;BME280;2218;51.408;7.208;2024-02-26T02:31:40;98074.97;;;17.10;37.65
4410;BME280;2218;51.408;7.208;2024-02-26T02:34:09;98078.56;;;17.09;37.76
4410;BME280;2218;51.408;7.208;2024-02-26T02:36:51;98084.53;;;17.11;37.44
4410;BME280;2218;51.408;7.208;2024-02-26T02:39:19;98085.78;;;17.17;37.67
4410;BME280;2218;51.408;7.208;2024-02-26T02:41:46;98090.63;;;17.21;37.71
4410;BME280;2218;51.408;7.208;2024-02-26T02:44:13;98089.28;;;17.27;37.19
4410;BME280;2218;51.408;7.208;2024-02-26T02:46:40;98091.50;;;17.31;37.32
4410;BME280;2218;51.408;7.208;2024-02-26T02:49:08;98085.97;;;17.35;37.22
4410;BME280;2218;51.408;7.208;2024-02-26T02:51:36;98082.25;;;17.37;37.28
4410;BME280;2218;51.408;7.208;2024-02-26T02:54:05;98076.88;;;17.39;37.32
4410;BME280;2218;51.408;7.208;2024-02-26T02:56:33;98082.69;;;17.42;37.51
4410;BME280;2218;51.408;7.208;2024-02-26T02:59:00;98084.34;;;17.43;37.01
4410;BME280;2218;51.408;7.208;2024-02-26T03:01:27;98082.41;;;17.45;37.20
4410;BME280;2218;51.408;7.208;2024-02-26T03:03:54;98090.16;;;17.47;37.11
4410;BME280;2218;51.408;7.208;2024-02-26T03:06:20;98099.69;;;17.48;37.13
4410;BME280;2218;51.408;7.208;2024-02-26T03:08:48;98099.69;;;17.48;37.46
4410;BME280;2218;51.408;7.208;2024-02-26T03:11:17;98101.25;;;17.50;37.00
4410;BME280;2218;51.408;7.208;2024-02-26T03:13:45;98104.69;;;17.51;37.00
4410;BME280;2218;51.408;7.208;2024-02-26T03:16:11;98105.38;;;17.53;37.23
4410;BME280;2218;51.408;7.208;2024-02-26T03:18:39;98112.28;;;17.54;37.18
4410;BME280;2218;51.408;7.208;2024-02-26T03:21:06;98107.88;;;17.54;37.08
4410;BME280;2218;51.408;7.208;2024-02-26T03:23:33;98099.16;;;17.54;37.10
4410;BME280;2218;51.408;7.208;2024-02-26T03:26:03;98104.28;;;17.55;36.95
4410;BME280;2218;51.408;7.208;2024-02-26T03:28:31;98099.88;;;17.56;37.16
4410;BME280;2218;51.408;7.208;2024-02-26T03:30:59;98106.78;;;17.57;36.99
4410;BME280;2218;51.408;7.208;2024-02-26T03:33:27;98096.28;;;17.57;37.21
4410;BME280;2218;51.408;7.208;2024-02-26T03:35:54;98100.56;;;17.58;36.77
4410;BME280;2218;51.408;7.208;2024-02-26T03:38:22;98096.97;;;17.59;36.72
4410;BME280;2218;51.408;7.208;2024-02-26T03:40:48;98096.97;;;17.59;36.86
4410;BME280;2218;51.408;7.208;2024-02-26T03:43:16;98091.59;;;17.61;36.97
4410;BME280;2218;51.408;7.208;2024-02-26T03:45:44;98096.84;;;17.61;36.72
4410;BME280;2218;51.408;7.208;2024-02-26T03:48:11;98102.94;;;17.61;36.88
4410;BME280;2218;51.408;7.208;2024-02-26T03:50:38;98096.84;;;17.61;37.18
4410;BME280;2218;51.408;7.208;2024-02-26T03:53:05;98097.66;;;17.61;37.05
4410;BME280;2218;51.408;7.208;2024-02-26T03:55:35;98091.44;;;17.62;36.92
4410;BME280;2218;51.408;7.208;2024-02-26T03:58:01;98091.44;;;17.62;36.93
4410;BME280;2218;51.408;7.208;2024-02-26T04:00:28;98096.69;;;17.62;36.88
4410;BME280;2218;51.408;7.208;2024-02-26T04:02:57;98088.81;;;17.62;36.64
4410;BME280;2218;51.408;7.208;2024-02-26T04:05:24;98093.25;;;17.62;36.78
4410;BME280;2218;51.408;7.208;2024-02-26T04:07:51;98088.00;;;17.62;36.98
4410;BME280;2218;51.408;7.208;2024-02-26T04:10:18;98080.09;;;17.62;37.14
4410;BME280;2218;51.408;7.208;2024-02-26T04:12:45;98083.56;;;17.62;37.00
4410;BME280;2218;51.408;7.208;2024-02-26T04:15:12;98078.31;;;17.62;37.14
4410;BME280;2218;51.408;7.208;2024-02-26T04:17:40;98079.28;;;17.61;37.12
4410;BME280;2218;51.408;7.208;2024-02-26T04:20:14;98076.66;;;17.61;37.09
4410;BME280;2218;51.408;7.208;2024-02-26T04:22:42;98086.34;;;17.61;36.87
4410;BME280;2218;51.408;7.208;2024-02-26T04:25:09;98079.28;;;17.61;37.33
4410;BME280;2218;51.408;7.208;2024-02-26T04:27:36;98087.28;;;17.60;37.28
4410;BME280;2218;51.408;7.208;2024-02-26T04:30:05;98091.59;;;17.61;37.45
4410;BME280;2218;51.408;7.208;2024-02-26T04:32:33;98086.44;;;17.59;37.39
4410;BME280;2218;51.408;7.208;2024-02-26T04:35:01;98095.16;;;17.60;37.36
4410;BME280;2218;51.408;7.208;2024-02-26T04:37:29;98103.03;;;17.60;37.43
4410;BME280;2218;51.408;7.208;2024-02-26T04:39:58;98097.78;;;17.60;37.63
4410;BME280;2218;51.408;7.208;2024-02-26T04:42:25;98095.31;;;17.58;37.59
4410;BME280;2218;51.408;7.208;2024-02-26T04:44:54;98104.00;;;17.58;37.47
4410;BME280;2218;51.408;7.208;2024-02-26T04:47:21;98102.22;;;17.59;37.60
4410;BME280;2218;51.408;7.208;2024-02-26T04:49:50;98104.84;;;17.59;37.64
4410;BME280;2218;51.408;7.208;2024-02-26T04:52:18;98110.09;;;17.59;37.45
4410;BME280;2218;51.408;7.208;2024-02-26T04:54:46;98117.00;;;17.60;37.53
4410;BME280;2218;51.408;7.208;2024-02-26T04:57:14;98121.44;;;17.60;37.54
4410;BME280;2218;51.408;7.208;2024-02-26T04:59:44;98127.50;;;17.60;37.53
4410;BME280;2218;51.408;7.208;2024-02-26T05:02:11;98134.44;;;17.61;37.47
4410;BME280;2218;51.408;7.208;2024-02-26T05:04:38;98136.09;;;17.62;37.70
4410;BME280;2218;51.408;7.208;2024-02-26T05:07:05;98130.84;;;17.62;37.33
4410;BME280;2218;51.408;7.208;2024-02-26T05:09:32;98136.09;;;17.62;37.63
4410;BME280;2218;51.408;7.208;2024-02-26T05:12:01;98143.00;;;17.63;37.85
4410;BME280;2218;51.408;7.208;2024-02-26T05:14:28;98135.13;;;17.63;37.63
4410;BME280;2218;51.408;7.208;2024-02-26T05:16:55;98140.25;;;17.65;37.40
4410;BME280;2218;51.408;7.208;2024-02-26T05:19:22;98142.88;;;17.65;37.71
4410;BME280;2218;51.408;7.208;2024-02-26T05:21:49;98148.00;;;17.66;38.00
4410;BME280;2218;51.408;7.208;2024-02-26T05:24:16;98146.22;;;17.67;37.66
4410;BME280;2218;51.408;7.208;2024-02-26T05:26:44;98149.66;;;17.67;37.60
4410;BME280;2218;51.408;7.208;2024-02-26T05:29:13;98152.16;;;17.69;37.74
4410;BME280;2218;51.408;7.208;2024-02-26T05:31:42;98153.81;;;17.70;37.85
4410;BME280;2218;51.408;7.208;2024-02-26T05:34:09;98147.72;;;17.69;37.98
4410;BME280;2218;51.408;7.208;2024-02-26T05:36:36;98149.41;;;17.70;37.61
4410;BME280;2218;51.408;7.208;2024-02-26T05:39:04;98145.81;;;17.71;37.76
4410;BME280;2218;51.408;7.208;2024-02-26T05:41:31;98146.63;;;17.72;38.07
4410;BME280;2218;51.408;7.208;2024-02-26T05:43:58;98144.00;;;17.72;37.82
4410;BME280;2218;51.408;7.208;2024-02-26T05:46:27;98144.84;;;17.72;37.40
4410;BME280;2218;51.408;7.208;2024-02-26T05:48:54;98141.38;;;17.72;37.57
4410;BME280;2218;51.408;7.208;2024-02-26T05:51:21;98149.16;;;17.73;37.86
4410;BME280;2218;51.408;7.208;2024-02-26T05:53:48;98147.47;;;17.72;37.88
4410;BME280;2218;51.408;7.208;2024-02-26T05:56:20;98149.16;;;17.73;37.81
4410;BME280;2218;51.408;7.208;2024-02-26T05:58:47;98149.16;;;17.73;37.87
4410;BME280;2218;51.408;7.208;2024-02-26T06:01:16;98153.44;;;17.74;38.09
4410;BME280;2218;51.408;7.208;2024-02-26T06:03:44;98154.41;;;17.73;38.02
4410;BME280;2218;51.408;7.208;2024-02-26T06:06:11;98161.31;;;17.74;37.87
4410;BME280;2218;51.408;7.208;2024-02-26T06:08:41;98159.66;;;17.73;37.82
4410;BME280;2218;51.408;7.208;2024-02-26T06:11:08;98171.00;;;17.74;38.18
4410;BME280;2218;51.408;7.208;2024-02-26T06:13:35;98168.38;;;17.74;37.93
4410;BME280;2218;51.408;7.208;2024-02-26T06:16:02;98165.75;;;17.74;38.20
4410;BME280;2218;51.408;7.208;2024-02-26T06:18:30;98171.00;;;17.74;37.80
4410;BME280;2218;51.408;7.208;2024-02-26T06:20:58;98178.78;;;17.75;37.83
4410;BME280;2218;51.408;7.208;2024-02-26T06:23:25;98182.34;;;17.74;37.94
4410;BME280;2218;51.408;7.208;2024-02-26T06:25:52;98185.69;;;17.76;37.89
4410;BME280;2218;51.408;7.208;2024-02-26T06:28:19;98180.53;;;17.75;37.88
4410;BME280;2218;51.408;7.208;2024-02-26T06:30:46;98176.13;;;17.75;38.05
4410;BME280;2218;51.408;7.208;2024-02-26T06:33:13;98183.16;;;17.75;37.91
4410;BME280;2218;51.408;7.208;2024-02-26T06:35:41;98189.28;;;17.75;38.01
4410;BME280;2218;51.408;7.208;2024-02-26T06:38:09;98187.59;;;17.74;38.37
4410;BME280;2218;51.408;7.208;2024-02-26T06:40:38;98184.84;;;17.76;38.08
4410;BME280;2218;51.408;7.208;2024-02-26T06:43:05;98183.06;;;17.76;38.16
4410;BME280;2218;51.408;7.208;2024-02-26T06:45:32;98185.69;;;17.76;37.81
4410;BME280;2218;51.408;7.208;2024-02-26T06:48:00;98190.94;;;17.76;38.11
4410;BME280;2218;51.408;7.208;2024-02-26T06:50:28;98185.53;;;17.78;38.21
4410;BME280;2218;51.408;7.208;2024-02-26T06:52:55;98186.50;;;17.77;38.27
4410;BME280;2218;51.408;7.208;2024-02-26T06:55:23;98184.72;;;17.77;38.36
4410;BME280;2218;51.408;7.208;2024-02-26T06:57:50;98192.59;;;17.77;38.05
4410;BME280;2218;51.408;7.208;2024-02-26T07:00:18;98190.78;;;17.78;38.18
4410;BME280;2218;51.408;7.208;2024-02-26T07:02:45;98196.88;;;17.78;38.24
4410;BME280;2218;51.408;7.208;2024-02-26T07:05:11;98198.53;;;17.79;38.23
4410;BME280;2218;51.408;7.208;2024-02-26T07:07:39;98202.97;;;17.79;38.11
4410;BME280;2218;51.408;7.208;2024-02-26T07:10:07;98207.25;;;17.80;38.54
4410;BME280;2218;51.408;7.208;2024-02-26T07:12:35;98210.72;;;17.80;38.00
4410;BME280;2218;51.408;7.208;2024-02-26T07:15:03;98208.94;;;17.81;38.38
4410;BME280;2218;51.408;7.208;2024-02-26T07:17:30;98209.75;;;17.81;38.15
4410;BME280;2218;51.408;7.208;2024-02-26T07:19:59;98215.00;;;17.81;37.92
4410;BME280;2218;51.408;7.208;2024-02-26T07:22:28;98220.28;;;17.81;37.67
4410;BME280;2218;51.408;7.208;2024-02-26T07:24:55;98221.09;;;17.82;37.76
4410;BME280;2218;51.408;7.208;2024-02-26T07:27:23;98221.91;;;17.82;37.76
4410;BME280;2218;51.408;7.208;2024-02-26T07:29:51;98225.53;;;17.81;38.09
4410;BME280;2218;51.408;7.208;2024-02-26T07:32:18;98226.34;;;17.82;37.90
4410;BME280;2218;51.408;7.208;2024-02-26T07:34:45;98227.19;;;17.82;38.08
4410;BME280;2218;51.408;7.208;2024-02-26T07:37:13;98231.59;;;17.82;37.69
4410;BME280;2218;51.408;7.208;2024-02-26T07:39:40;98241.28;;;17.81;38.13
4410;BME280;2218;51.408;7.208;2024-02-26T07:42:06;98245.56;;;17.82;37.90
4410;BME280;2218;51.408;7.208;2024-02-26T07:44:33;98253.47;;;17.82;37.72
4410;BME280;2218;51.408;7.208;2024-02-26T07:47:02;98254.28;;;17.83;37.93
4410;BME280;2218;51.408;7.208;2024-02-26T07:49:29;98256.91;;;17.83;37.92
4410;BME280;2218;51.408;7.208;2024-02-26T07:51:56;98251.66;;;17.83;37.48
4410;BME280;2218;51.408;7.208;2024-02-26T07:54:24;98252.47;;;17.83;38.31
4410;BME280;2218;51.408;7.208;2024-02-26T07:56:52;98260.38;;;17.83;38.56
4410;BME280;2218;51.408;7.208;2024-02-26T07:59:19;98264.78;;;17.83;38.89
4410;BME280;2218;51.408;7.208;2024-02-26T08:01:50;98266.47;;;17.84;38.63
4410;BME280;2218;51.408;7.208;2024-02-26T08:04:19;98259.53;;;17.83;38.70
4410;BME280;2218;51.408;7.208;2024-02-26T08:06:46;98270.75;;;17.85;38.69
4410;BME280;2218;51.408;7.208;2024-02-26T08:09:13;98264.66;;;17.85;38.94
4410;BME280;2218;51.408;7.208;2024-02-26T08:11:40;98268.13;;;17.85;38.96
4410;BME280;2218;51.408;7.208;2024-02-26T08:14:06;98273.38;;;17.85;38.67
4410;BME280;2218;51.408;7.208;2024-02-26T08:16:33;98278.63;;;17.85;38.78
4410;BME280;2218;51.408;7.208;2024-02-26T08:19:00;98269.81;;;17.86;39.13
4410;BME280;2218;51.408;7.208;2024-02-26T08:21:29;98275.06;;;17.86;38.86
4410;BME280;2218;51.408;7.208;2024-02-26T08:23:56;98271.59;;;17.86;38.94
4410;BME280;2218;51.408;7.208;2024-02-26T08:26:23;98275.06;;;17.86;39.12
4410;BME280;2218;51.408;7.208;2024-02-26T08:28:50;98270.63;;;17.87;39.15
4410;BME280;2218;51.408;7.208;2024-02-26T08:31:17;98274.22;;;17.86;38.62
4410;BME280;2218;51.408;7.208;2024-02-26T08:33:44;98270.63;;;17.87;38.73
4410;BME280;2218;51.408;7.208;2024-02-26T08:36:11;98287.22;;;17.87;39.04
4410;BME280;2218;51.408;7.208;2024-02-26T08:38:40;98281.97;;;17.87;38.68
4410;BME280;2218;51.408;7.208;2024-02-26T08:41:07;98278.50;;;17.87;38.64
4410;BME280;2218;51.408;7.208;2024-02-26T08:43:34;98281.13;;;17.87;38.95
4410;BME280;2218;51.408;7.208;2024-02-26T08:46:03;98279.19;;;17.89;39.08
4410;BME280;2218;51.408;7.208;2024-02-26T08:48:30;98273.94;;;17.89;38.96
4410;BME280;2218;51.408;7.208;2024-02-26T08:50:56;98281.81;;;17.89;39.08
4410;BME280;2218;51.408;7.208;2024-02-26T08:53:23;98278.38;;;17.88;39.03
4410;BME280;2218;51.408;7.208;2024-02-26T08:55:53;98278.38;;;17.88;39.27
4410;BME280;2218;51.408;7.208;2024-02-26T08:58:20;98280.03;;;17.89;39.04
4410;BME280;2218;51.408;7.208;2024-02-26T09:00:47;98287.09;;;17.89;39.11
4410;BME280;2218;51.408;7.208;2024-02-26T09:03:14;98281.81;;;17.89;39.00
4410;BME280;2218;51.408;7.208;2024-02-26T09:05:41;98286.13;;;17.90;38.95
4410;BME280;2218;51.408;7.208;2024-02-26T09:08:09;98291.38;;;17.90;39.12
4410;BME280;2218;51.408;7.208;2024-02-26T09:10:36;98284.34;;;17.90;39.43
4410;BME280;2218;51.408;7.208;2024-02-26T09:13:04;98301.88;;;17.90;39.27
4410;BME280;2218;51.408;7.208;2024-02-26T09:15:31;98305.38;;;17.90;39.33
4410;BME280;2218;51.408;7.208;2024-02-26T09:17:58;98309.75;;;17.90;39.16
4410;BME280;2218;51.408;7.208;2024-02-26T09:20:26;98314.09;;;17.91;39.28
4410;BME280;2218;51.408;7.208;2024-02-26T09:22:53;98318.50;;;17.90;39.45
4410;BME280;2218;51.408;7.208;2024-02-26T09:25:20;98319.34;;;17.91;39.68
4410;BME280;2218;51.408;7.208;2024-02-26T09:27:47;98324.59;;;17.91;39.37
4410;BME280;2218;51.408;7.208;2024-02-26T09:30:16;98329.72;;;17.92;39.33
4410;BME280;2218;51.408;7.208;2024-02-26T09:32:46;98331.50;;;17.92;39.59
4410;BME280;2218;51.408;7.208;2024-02-26T09:35:13;98318.38;;;17.92;39.15
4410;BME280;2218;51.408;7.208;2024-02-26T09:37:40;98327.91;;;17.93;39.36
4410;BME280;2218;51.408;7.208;2024-02-26T09:40:10;98327.09;;;17.92;39.30
4410;BME280;2218;51.408;7.208;2024-02-26T09:42:44;98327.91;;;17.93;39.55
4410;BME280;2218;51.408;7.208;2024-02-26T09:45:19;98323.47;;;17.93;39.48
4410;BME280;2218;51.408;7.208;2024-02-26T09:47:48;98327.91;;;17.93;39.53
4410;BME280;2218;51.408;7.208;2024-02-26T09:50:17;98328.75;;;17.93;39.35
4410;BME280;2218;51.408;7.208;2024-02-26T09:52:50;98333.84;;;17.95;39.64
4410;BME280;2218;51.408;7.208;2024-02-26T09:55:18;98334.81;;;17.94;39.72
4410;BME280;2218;51.408;7.208;2024-02-26T09:57:46;98333.84;;;17.95;39.52
4410;BME280;2218;51.408;7.208;2024-02-26T10:00:19;98338.28;;;17.94;39.48
4410;BME280;2218;51.408;7.208;2024-02-26T10:02:47;98336.50;;;17.95;39.65
4410;BME280;2218;51.408;7.208;2024-02-26T10:05:17;98342.47;;;17.97;39.78
4410;BME280;2218;51.408;7.208;2024-02-26T10:07:45;98339.00;;;17.96;39.56
4410;BME280;2218;51.408;7.208;2024-02-26T10:10:13;98340.81;;;17.96;39.50
4410;BME280;2218;51.408;7.208;2024-02-26T10:12:40;98348.69;;;17.96;39.53
4410;BME280;2218;51.408;7.208;2024-02-26T10:15:08;98349.53;;;17.96;39.74
4410;BME280;2218;51.408;7.208;2024-02-26T10:17:38;98360.84;;;17.97;39.64
4410;BME280;2218;51.408;7.208;2024-02-26T10:20:16;98365.16;;;17.98;39.58
4410;BME280;2218;51.408;7.208;2024-02-26T10:22:44;98380.91;;;17.98;39.40
4410;BME280;2218;51.408;7.208;2024-02-26T10:25:11;98380.91;;;17.98;39.86
4410;BME280;2218;51.408;7.208;2024-02-26T10:27:40;98397.53;;;17.98;39.96
4410;BME280;2218;51.408;7.208;2024-02-26T10:30:17;98406.22;;;17.99;39.81
4410;BME280;2218;51.408;7.208;2024-02-26T10:32:47;98394.06;;;17.98;39.94
4410;BME280;2218;51.408;7.208;2024-02-26T10:35:14;98404.44;;;17.99;39.72
4410;BME280;2218;51.408;7.208;2024-02-26T10:37:42;98407.06;;;17.99;39.73
4410;BME280;2218;51.408;7.208;2024-02-26T10:40:10;98402.63;;;18.00;40.05
4410;BME280;2218;51.408;7.208;2024-02-26T10:42:37;98401.81;;;17.99;39.84
4410;BME280;2218;51.408;7.208;2024-02-26T10:45:06;98404.31;;;18.01;39.64
4410;BME280;2218;51.408;7.208;2024-02-26T10:47:35;98404.31;;;18.01;39.63
4410;BME280;2218;51.408;7.208;2024-02-26T10:50:06;98410.41;;;18.01;39.71
4410;BME280;2218;51.408;7.208;2024-02-26T10:52:35;98411.25;;;18.02;39.94
4410;BME280;2218;51.408;7.208;2024-02-26T10:55:04;98401.69;;;18.01;39.85
4410;BME280;2218;51.408;7.208;2024-02-26T10:57:35;98408.63;;;18.02;39.88
4410;BME280;2218;51.408;7.208;2024-02-26T11:00:06;98401.56;;;18.02;40.13
4410;BME280;2218;51.408;7.208;2024-02-26T11:02:36;98410.28;;;18.03;40.19
4410;BME280;2218;51.408;7.208;2024-02-26T11:05:07;98409.44;;;18.02;39.91
4410;BME280;2218;51.408;7.208;2024-02-26T11:07:35;98412.91;;;18.03;39.84
4410;BME280;2218;51.408;7.208;2024-02-26T11:10:04;98416.38;;;18.03;40.03
4410;BME280;2218;51.408;7.208;2024-02-26T11:12:34;98419.81;;;18.04;39.59
4410;BME280;2218;51.408;7.208;2024-02-26T11:15:04;98421.47;;;18.05;38.94
4410;BME280;2218;51.408;7.208;2024-02-26T11:17:32;98422.34;;;18.05;39.23
4410;BME280;2218;51.408;7.208;2024-02-26T11:20:00;98431.06;;;18.06;39.40
4410;BME280;2218;51.408;7.208;2024-02-26T11:22:29;98425.66;;;18.07;38.98
4410;BME280;2218;51.408;7.208;2024-02-26T11:24:58;98431.75;;;18.08;39.21
4410;BME280;2218;51.408;7.208;2024-02-26T11:27:30;98428.16;;;18.09;39.07
4410;BME280;2218;51.408;7.208;2024-02-26T11:30:01;98431.75;;;18.08;39.17
4410;BME280;2218;51.408;7.208;2024-02-26T11:32:31;98429.94;;;18.08;38.92
4410;BME280;2218;51.408;7.208;2024-02-26T11:35:01;98429.84;;;18.10;39.17
4410;BME280;2218;51.408;7.208;2024-02-26T11:37:29;98429.84;;;18.10;39.13
4410;BME280;2218;51.408;7.208;2024-02-26T11:39:59;98420.16;;;18.11;39.06
4410;BME280;2218;51.408;7.208;2024-02-26T11:42:27;98420.16;;;18.11;39.07
4410;BME280;2218;51.408;7.208;2024-02-26T11:44:54;98422.66;;;18.12;39.45
4410;BME280;2218;51.408;7.208;2024-02-26T11:47:27;98421.81;;;18.12;39.39
4410;BME280;2218;51.408;7.208;2024-02-26T11:49:54;98430.53;;;18.12;39.42
4410;BME280;2218;51.408;7.208;2024-02-26T11:52:21;98426.09;;;18.13;38.95
4410;BME280;2218;51.408;7.208;2024-02-26T11:54:51;98440.09;;;18.13;39.14
4410;BME280;2218;51.408;7.208;2024-02-26T11:57:24;98439.09;;;18.14;39.33
4410;BME280;2218;51.408;7.208;2024-02-26T11:59:52;98447.81;;;18.15;39.44
4410;BME280;2218;51.408;7.208;2024-02-26T12:02:39;98443.44;;;18.15;39.42
4410;BME280;2218;51.408;7.208;2024-02-26T12:05:09;98444.25;;;18.16;39.63
4410;BME280;2218;51.408;7.208;2024-02-26T12:07:39;98449.38;;;18.17;39.66
4410;BME280;2218;51.408;7.208;2024-02-26T12:10:24;98445.09;;;18.16;39.06
4410;BME280;2218;51.408;7.208;2024-02-26T12:12:59;98444.13;;;18.17;39.62
4410;BME280;2218;51.408;7.208;2024-02-26T12:15:31;98458.09;;;18.18;39.75
4410;BME280;2218;51.408;7.208;2024-02-26T12:18:02;98446.75;;;18.17;40.07
4410;BME280;2218;51.408;7.208;2024-02-26T12:20:29;98451.19;;;18.17;39.83
4410;BME280;2218;51.408;7.208;2024-02-26T12:22:57;98447.59;;;18.18;39.89
4410;BME280;2218;51.408;7.208;2024-02-26T12:25:28;98451.19;;;18.17;40.14
4410;BME280;2218;51.408;7.208;2024-02-26T12:27:55;98456.31;;;18.18;40.14
4410;BME280;2218;51.408;7.208;2024-02-26T12:30:23;98447.59;;;18.18;40.42
4410;BME280;2218;51.408;7.208;2024-02-26T12:32:52;98452.84;;;18.18;40.17
4410;BME280;2218;51.408;7.208;2024-02-26T12:35:23;98447.44;;;18.19;39.86
4410;BME280;2218;51.408;7.208;2024-02-26T12:37:50;98457.13;;;18.19;40.26
4410;BME280;2218;51.408;7.208;2024-02-26T12:40:19;98455.34;;;18.19;40.29
4410;BME280;2218;51.408;7.208;2024-02-26T12:42:47;98465.84;;;18.19;40.35
4410;BME280;2218;51.408;7.208;2024-02-26T12:45:15;98469.19;;;18.21;40.56
4410;BME280;2218;51.408;7.208;2024-02-26T12:47:44;98460.59;;;18.19;40.50
4410;BME280;2218;51.408;7.208;2024-02-26T12:50:12;98469.31;;;18.20;40.30
4410;BME280;2218;51.408;7.208;2024-02-26T12:52:42;98472.81;;;18.20;40.56
4410;BME280;2218;51.408;7.208;2024-02-26T12:55:14;98478.88;;;18.21;40.40
4410;BME280;2218;51.408;7.208;2024-02-26T12:57:42;98480.69;;;18.20;40.42
4410;BME280;2218;51.408;7.208;2024-02-26T13:00:15;98487.59;;;18.21;40.37
4410;BME280;2218;51.408;7.208;2024-02-26T13:02:43;98496.31;;;18.22;40.47
4410;BME280;2218;51.408;7.208;2024-02-26T13:05:13;98499.78;;;18.22;40.54
4410;BME280;2218;51.408;7.208;2024-02-26T13:07:42;98502.41;;;18.22;40.44
4410;BME280;2218;51.408;7.208;2024-02-26T13:10:09;98501.59;;;18.22;40.38
4410;BME280;2218;51.408;7.208;2024-02-26T13:12:43;98504.06;;;18.23;40.61
4410;BME280;2218;51.408;7.208;2024-02-26T13:15:16;98514.59;;;18.23;40.55
4410;BME280;2218;51.408;7.208;2024-02-26T13:17:43;98511.97;;;18.23;40.61
4410;BME280;2218;51.408;7.208;2024-02-26T13:20:11;98508.50;;;18.23;40.55
4410;BME280;2218;51.408;7.208;2024-02-26T13:22:39;98517.09;;;18.25;40.67
4410;BME280;2218;51.408;7.208;2024-02-26T13:25:07;98521.50;;;18.24;40.62
4410;BME280;2218;51.408;7.208;2024-02-26T13:27:34;98527.59;;;18.25;40.59